• Join FlightAware (Why Join?)
  • Login
  • US Flag 
02:03PM EDT


 

Airport Tracker/Info


-or-


 

Live Flight TrackerFlight Track Log ✈ WJA175 ✈ 2014年 08月 18日 ✈ CYYZ - CYWG

Flight Track Log - Related Links

Times and Time Zones

All times are in EDT time to prevent confusion due to time zone crossing. See the WJA175 flight status page for this flight to view local times or setup timezone preferences in your user account.

Time Position Orientation Groundspeed Altitude Reporting Facility
EDT Latitude Longitude Course Direction KTS MPH feet Rate Location/Type
09:10AM 43.6833 -79.6333 47° Northeast 50 58 700  Level Toronto Center
09:11AM 43.7167 -79.5833 47° Northeast 180 207 2,400 1,920 Climbing Toronto Center
09:12AM 43.7667 -79.5333 36° Northeast 210 242 4,600 2,340 Climbing Toronto Center
09:13AM 43.8167 -79.6167 310° West 260 299 7,100 2,640 Climbing Toronto Center
09:14AM 43.8500 -79.7000 299° West 270 311 9,900 2,160 Climbing Toronto Center
09:15AM 43.8667 -79.8167 281° West 300 345 11,500 2,100 Climbing Toronto Center
09:16AM 43.9000 -79.9333 292° West 340 391 14,100 2,700 Climbing Toronto Center
09:17AM 43.9167 -80.0667 280° West 360 414 17,000 2,640 Climbing Toronto Center
09:18AM 43.9833 -80.1833 308° West 370 426 19,400 2,400 Climbing Toronto Center
09:19AM 44.0500 -80.3000 309° West 380 437 21,800 2,220 Climbing Toronto Center
09:20AM 44.1333 -80.4167 315° West 390 449 23,900 2,100 Climbing Toronto Center
09:21AM 44.2000 -80.5167 313° West 400 460 26,000 1,980 Climbing Toronto Center
09:22AM 44.2833 -80.6500 311° West 410 472 27,900 1,500 Climbing Toronto Center
09:23AM 44.3500 -80.7833 305° West 420 483 29,100 1,380 Climbing Toronto Center
09:24AM 44.4167 -80.9167 305° West 440 506 30,700 1,620 Climbing Toronto Center
09:25AM 44.5000 -81.0333 315° West 440 506 32,400 1,680 Climbing Toronto Center
09:26AM 44.5833 -81.1500 315° West 440 506 34,100 1,500 Climbing Toronto Center
09:27AM 44.6500 -81.3000 302° West 430 495 35,500 1,380 Climbing Toronto Center
09:28AM 44.7333 -81.4167 315° West 420 483 36,900 1,200 Climbing Toronto Center
09:29AM 44.8167 -81.5333 315° West 420 483 38,000 540 Climbing Toronto Center
09:30AM 44.9000 -81.6833 308° West 420 483 38,000  Level Toronto Center
09:31AM 44.9667 -81.8000 309° West 420 483 38,000  Level Toronto Center
09:32AM 45.0500 -81.9167 315° West 420 483 38,000  Level Toronto Center
09:33AM 45.1167 -82.0500 305° West 420 483 38,000  Level Toronto Center
09:34AM 45.1833 -82.1667 309° West 420 483 38,000  Level Toronto Center
09:35AM 45.2667 -82.3167 308° West 420 483 38,000  Level Toronto Center
09:36AM 45.3333 -82.4333 309° West 420 483 38,000  Level Toronto Center
09:37AM 45.4167 -82.5500 316° Northwest 420 483 38,000  Level Toronto Center
09:38AM 45.5000 -82.6833 312° West 420 483 38,000  Level Toronto Center
09:39AM 45.5667 -82.8167 306° West 420 483 38,000  Level Toronto Center
09:40AM 45.6333 -82.9500 306° West 420 483 38,000  Level Toronto Center
09:41AM 45.7167 -83.0667 316° Northwest 420 483 38,000  Level Toronto Center
09:42AM 45.8000 -83.2000 312° West 420 483 38,000  Level Toronto Center
09:43AM 45.8500 -83.3500 296° West 420 483 38,000  Level Toronto Center
09:44AM 45.9333 -83.4667 316° Northwest 420 483 38,000  Level Toronto Center
09:45AM 46.0000 -83.6000 306° West 420 483 38,000  Level Toronto Center
09:46AM 46.0833 -83.7167 316° Northwest 420 483 38,000  Level Toronto Center
09:47AM 46.1500 -83.8667 303° West 420 483 38,000  Level Toronto Center
09:48AM 46.2167 -84.0000 306° West 420 483 38,000  Level Toronto Center
09:49AM 46.3000 -84.1167 316° Northwest 420 483 38,000  Level Toronto Center
09:50AM 46.3667 -84.2500 306° West 420 483 38,000  Level Toronto Center
09:51AM 46.4333 -84.4000 303° West 430 495 38,000  Level Toronto Center
09:52AM 46.5000 -84.5500 303° West 430 495 38,000  Level Toronto Center
09:53AM 46.5500 -84.7000 296° West 420 483 38,000  Level Toronto Center
09:54AM 46.6000 -84.8500 296° West 430 495 38,000  Level Toronto Center
09:54AM 46.6333 -84.8833 326° Northwest 420 483 38,000  Level Winnipeg Center
09:55AM 46.6833 -85.0333 296° West 420 483 38,000  Level Winnipeg Center
09:56AM 46.7500 -85.1667 306° West 420 483 38,000  Level Winnipeg Center
09:57AM 46.8000 -85.3333 294° West 420 483 38,000  Level Winnipeg Center
09:58AM 46.8500 -85.4833 296° West 420 483 38,000  Level Winnipeg Center
09:59AM 46.9167 -85.6167 306° West 420 483 38,000  Level Winnipeg Center
10:00AM 46.9667 -85.7833 294° West 420 483 38,000  Level Winnipeg Center
10:01AM 47.0333 -85.9167 306° West 420 483 38,000  Level Winnipeg Center
10:02AM 47.0833 -86.0833 294° West 410 472 38,000  Level Winnipeg Center
10:03AM 47.1333 -86.2167 299° West 410 472 38,000  Level Winnipeg Center
10:04AM 47.2000 -86.3833 301° West 410 472 38,000  Level Winnipeg Center
10:05AM 47.2333 -86.5167 290° West 410 472 38,000  Level Winnipeg Center
10:06AM 47.2833 -86.6833 294° West 410 472 38,000  Level Winnipeg Center
10:07AM 47.3500 -86.8167 306° West 420 483 38,000  Level Winnipeg Center
10:08AM 47.4000 -86.9833 294° West 420 483 38,000  Level Winnipeg Center
10:09AM 47.4667 -87.1167 307° West 420 483 38,000  Level Winnipeg Center
10:10AM 47.5167 -87.2833 294° West 420 483 38,000  Level Winnipeg Center
10:11AM 47.5500 -87.4167 290° West 420 483 38,000  Level Winnipeg Center
10:12AM 47.6167 -87.5833 301° West 410 472 38,000  Level Winnipeg Center
10:13AM 47.6667 -87.7167 299° West 420 483 38,000  Level Winnipeg Center
10:14AM 47.7333 -87.8833 301° West 420 483 38,000  Level Winnipeg Center
10:15AM 47.7833 -88.0333 296° West 420 483 38,000  Level Winnipeg Center
10:16AM 47.8167 -88.2000 287° West 420 483 38,000  Level Winnipeg Center
10:17AM 47.8833 -88.3333 307° West 420 483 38,000  Level Winnipeg Center
10:18AM 47.9333 -88.5000 294° West 420 483 38,000  Level Winnipeg Center
10:19AM 48.0000 -88.6333 307° West 420 483 38,000  Level Winnipeg Center
10:20AM 48.0333 -88.8167 285° West 420 483 38,000  Level Winnipeg Center
10:21AM 48.0833 -88.9833 294° West 420 483 38,000  Level Winnipeg Center
10:22AM 48.1500 -89.1167 307° West 420 483 38,000  Level Winnipeg Center
10:23AM 48.1833 -89.2667 288° West 420 483 38,000  Level Winnipeg Center
10:24AM 48.2333 -89.4333 294° West 410 472 38,000  Level Winnipeg Center
10:25AM 48.2833 -89.6000 294° West 410 472 38,000  Level Winnipeg Center
10:26AM 48.3167 -89.7667 287° West 410 472 38,000  Level Winnipeg Center
10:27AM 48.3500 -89.9167 289° West 410 472 38,000  Level Winnipeg Center
10:28AM 48.4000 -90.0833 294° West 410 472 38,000  Level Winnipeg Center
10:29AM 48.4333 -90.2667 285° West 420 483 38,000  Level Winnipeg Center
10:30AM 48.4667 -90.4000 291° West 420 483 38,000  Level Winnipeg Center
10:31AM 48.5000 -90.5833 285° West 420 483 38,000  Level Winnipeg Center
10:32AM 48.5333 -90.7500 287° West 420 483 38,000  Level Winnipeg Center
10:33AM 48.5833 -90.9167 294° West 420 483 38,000  Level Winnipeg Center
10:34AM 48.6167 -91.1000 285° West 430 495 38,000  Level Winnipeg Center
10:35AM 48.6500 -91.2667 287° West 430 495 38,000  Level Winnipeg Center
10:36AM 48.6833 -91.4500 285° West 430 495 38,000  Level Winnipeg Center
10:37AM 48.7333 -91.6167 295° West 430 495 38,000  Level Winnipeg Center
10:38AM 48.7667 -91.7833 287° West 430 495 38,000  Level Winnipeg Center
10:39AM 48.8000 -91.9333 289° West 430 495 38,000  Level Winnipeg Center
10:40AM 48.8333 -92.1167 286° West 430 495 38,000  Level Winnipeg Center
10:41AM 48.8833 -92.2833 295° West 430 495 38,000  Level Winnipeg Center
10:42AM 48.9000 -92.4667 278° West 430 495 38,000  Level Winnipeg Center
10:43AM 48.9500 -92.6333 295° West 430 495 38,000  Level Winnipeg Center
10:44AM 48.9833 -92.8167 286° West 430 495 38,000  Level Winnipeg Center
10:45AM 49.0000 -92.9833 279° West 430 495 38,000  Level Winnipeg Center
10:46AM 49.0500 -93.1667 293° West 430 495 38,000  Level Winnipeg Center
10:47AM 49.0833 -93.3333 287° West 430 495 38,000  Level Winnipeg Center
10:48AM 49.1000 -93.5167 278° West 430 495 38,000  Level Winnipeg Center
10:49AM 49.1500 -93.7000 293° West 430 495 38,000  Level Winnipeg Center
10:50AM 49.1833 -93.8667 287° West 430 495 38,000  Level Winnipeg Center
10:51AM 49.2167 -94.0500 286° West 430 495 38,000  Level Winnipeg Center
10:52AM 49.2500 -94.2167 287° West 430 495 38,000 -60 Level Winnipeg Center
10:53AM 49.2833 -94.4000 286° West 430 495 37,900 -1,260 Descending Winnipeg Center
10:54AM 49.3167 -94.5833 286° West 430 495 35,500 -2,220 Descending Winnipeg Center
10:55AM 49.3333 -94.7667 278° West 420 483 33,500 -2,100 Descending Winnipeg Center
10:56AM 49.3833 -94.9333 295° West 410 472 31,300 -2,100 Descending Winnipeg Center
10:57AM 49.4167 -95.0833 289° West 410 472 29,400 -2,040 Descending Winnipeg Center
10:58AM 49.4333 -95.2667 278° West 400 460 27,300 -1,980 Descending Winnipeg Center
10:59AM 49.4667 -95.4167 289° West 390 449 25,500 -1,920 Descending Winnipeg Center
11:00AM 49.4833 -95.5833 279° West 380 437 23,500 -1,920 Descending Winnipeg Center
11:01AM 49.5167 -95.7333 289° West 370 426 21,700 -1,800 Descending Winnipeg Center
11:02AM 49.5333 -95.8833 280° West 370 426 20,000 -1,800 Descending Winnipeg Center
11:03AM 49.5833 -96.0167 300° West 360 414 18,100 -1,860 Descending Winnipeg Center
11:04AM 49.6333 -96.1667 297° West 350 403 16,300 -1,800 Descending Winnipeg Center
11:05AM 49.6667 -96.3000 291° West 340 391 14,600 -1,800 Descending Winnipeg Center
11:06AM 49.7000 -96.4167 294° West 320 368 12,700 -1,920 Descending Winnipeg Center
11:07AM 49.7000 -96.5500 270° West 330 380 10,800 -1,500 Descending Winnipeg Center
11:08AM 49.7167 -96.7000 280° West 290 334 9,800 -1,440 Descending Winnipeg Center
11:09AM 49.7167 -96.8167 270° West 280 322 8,000 -1,680 Descending Winnipeg Center
11:10AM 49.7167 -96.9333 270° West 270 311 6,500 -1,260 Descending Winnipeg Center
11:11AM 49.7333 -97.0500 283° West 270 311 5,500 -780 Descending Winnipeg Center
11:12AM 49.7333 -97.1500 270° West 220 253 5,000 -840 Descending Winnipeg Center
11:13AM 49.7333 -97.2167 270° West 200 230 3,900 -1,140 Descending Winnipeg Center
11:14AM 49.7667 -97.2500 327° Northwest 180 207 2,800 -1,140 Descending Winnipeg Center